createdAt,value
2018-12-06T00:00:14.943Z,7.20
2018-12-06T00:02:49.300Z,7.07
2018-12-06T00:05:23.813Z,7.13
2018-12-06T00:08:09.637Z,7.47
2018-12-06T00:10:44.165Z,7.47
2018-12-06T00:13:18.592Z,7.10
2018-12-06T00:15:52.792Z,7.40
2018-12-06T00:18:27.110Z,7.17
2018-12-06T00:21:01.307Z,7.60
2018-12-06T00:23:35.714Z,7.83
2018-12-06T00:26:10.256Z,7.53
2018-12-06T00:28:44.471Z,7.27
2018-12-06T00:31:18.775Z,7.10
2018-12-06T00:33:53.268Z,8.17
2018-12-06T00:36:27.773Z,7.70
2018-12-06T00:39:02.153Z,8.33
2018-12-06T00:41:36.532Z,8.27
2018-12-06T00:44:10.965Z,7.63
2018-12-06T00:46:45.162Z,7.70
2018-12-06T00:49:19.622Z,7.27
2018-12-06T00:51:53.897Z,8.27
2018-12-06T00:54:28.262Z,7.70
2018-12-06T00:57:02.496Z,7.57
2018-12-06T00:59:36.803Z,7.30
2018-12-06T01:02:11.357Z,7.57
2018-12-06T01:04:45.607Z,7.13
2018-12-06T01:07:19.882Z,7.77
2018-12-06T01:09:54.507Z,7.70
2018-12-06T01:12:28.907Z,8.13
2018-12-06T01:15:03.447Z,8.30
2018-12-06T01:17:37.910Z,9.00
2018-12-06T01:20:13.146Z,8.27
2018-12-06T01:22:47.528Z,7.50
2018-12-06T01:25:21.733Z,7.23
2018-12-06T01:27:56.010Z,8.20
2018-12-06T01:30:30.343Z,7.60
2018-12-06T01:33:04.704Z,7.17
2018-12-06T01:35:39.096Z,7.90
2018-12-06T01:38:13.400Z,8.80
2018-12-06T01:40:47.752Z,8.40
2018-12-06T01:43:22.045Z,8.30
2018-12-06T01:45:56.377Z,8.00
2018-12-06T01:48:31.133Z,7.90
2018-12-06T01:51:05.536Z,7.37
2018-12-06T01:53:39.848Z,8.23
2018-12-06T01:56:14.250Z,8.30
2018-12-06T01:58:48.697Z,8.03
2018-12-06T02:01:22.988Z,8.87
2018-12-06T02:03:57.326Z,8.77
2018-12-06T02:06:31.802Z,8.40
2018-12-06T02:09:07.776Z,8.23
2018-12-06T02:11:42.119Z,8.80
2018-12-06T02:14:16.449Z,8.57
2018-12-06T02:16:50.732Z,9.17
2018-12-06T02:19:25.425Z,9.03
2018-12-06T02:21:59.903Z,8.53
2018-12-06T02:24:34.212Z,8.93
2018-12-06T02:27:08.503Z,9.10
2018-12-06T02:29:48.309Z,9.33
2018-12-06T02:32:23.468Z,9.57
2018-12-06T02:34:57.762Z,8.87
2018-12-06T02:37:32.149Z,9.77
2018-12-06T02:40:06.789Z,13.20
2018-12-06T02:42:41.356Z,9.73
2018-12-06T02:45:15.858Z,11.13
2018-12-06T02:47:50.334Z,10.03
2018-12-06T02:50:24.693Z,9.43
2018-12-06T02:52:59.024Z,9.53
2018-12-06T02:55:33.246Z,9.93
2018-12-06T02:58:07.597Z,10.07
2018-12-06T03:00:41.724Z,9.13
2018-12-06T03:03:15.982Z,9.53
2018-12-06T03:05:50.393Z,9.60
2018-12-06T03:08:24.858Z,10.17
2018-12-06T03:10:59.168Z,10.13
2018-12-06T03:13:33.494Z,10.37
2018-12-06T03:16:07.916Z,10.13
2018-12-06T03:18:42.251Z,9.50
2018-12-06T03:21:16.912Z,9.33
2018-12-06T03:23:51.333Z,9.63
2018-12-06T03:26:25.740Z,10.13
2018-12-06T03:29:00.081Z,9.87
2018-12-06T03:31:34.406Z,10.57
2018-12-06T03:34:08.822Z,9.87
2018-12-06T03:36:43.346Z,10.03
2018-12-06T03:39:17.698Z,10.67
2018-12-06T03:41:51.946Z,10.30
2018-12-06T03:44:26.209Z,9.83
2018-12-06T03:47:00.725Z,10.33
2018-12-06T03:49:35.115Z,11.07
2018-12-06T03:52:09.542Z,10.90
2018-12-06T03:54:43.822Z,9.77
2018-12-06T03:57:18.234Z,10.13
2018-12-06T03:59:52.632Z,10.83
2018-12-06T04:02:27.044Z,10.00
2018-12-06T04:05:01.315Z,10.13
2018-12-06T04:07:35.506Z,11.37
2018-12-06T04:10:09.842Z,10.23
2018-12-06T04:12:44.084Z,10.77
2018-12-06T04:15:18.334Z,10.30
2018-12-06T04:17:52.542Z,10.77
2018-12-06T04:20:26.976Z,11.63
2018-12-06T04:23:06.760Z,10.50
2018-12-06T04:25:40.992Z,10.80
2018-12-06T04:28:15.529Z,11.30
2018-12-06T04:30:50.089Z,11.90
2018-12-06T04:33:24.600Z,10.93
2018-12-06T04:35:58.904Z,10.77
2018-12-06T04:38:33.384Z,10.93
2018-12-06T04:41:07.574Z,11.97
2018-12-06T04:43:41.898Z,10.97
2018-12-06T04:46:16.180Z,10.57
2018-12-06T04:48:50.697Z,10.97
2018-12-06T04:51:25.060Z,11.37
2018-12-06T04:53:59.284Z,10.93
2018-12-06T04:56:33.609Z,11.30
2018-12-06T04:59:07.997Z,11.70
2018-12-06T05:01:42.420Z,12.40
2018-12-06T05:04:16.756Z,12.40
2018-12-06T05:06:51.001Z,11.70
2018-12-06T05:09:25.271Z,15.10
2018-12-06T05:11:59.546Z,11.87
2018-12-06T05:14:33.876Z,11.33
2018-12-06T05:17:08.165Z,11.23
2018-12-06T05:19:42.479Z,11.33
2018-12-06T05:22:16.778Z,11.00
2018-12-06T05:24:51.212Z,11.20
2018-12-06T05:27:25.505Z,14.20
2018-12-06T05:29:59.789Z,12.20
2018-12-06T05:32:34.116Z,11.17
2018-12-06T05:35:08.389Z,10.80
2018-12-06T05:37:42.617Z,11.00
2018-12-06T05:40:16.852Z,10.93
2018-12-06T05:42:51.080Z,11.53
2018-12-06T05:45:25.472Z,11.27
2018-12-06T05:47:59.713Z,11.50
2018-12-06T05:50:33.976Z,11.67
2018-12-06T05:53:08.365Z,11.40
2018-12-06T05:55:42.672Z,10.80
2018-12-06T05:58:17.097Z,11.80
2018-12-06T06:00:51.445Z,11.33
2018-12-06T06:03:25.853Z,10.50
2018-12-06T06:06:00.114Z,11.40
2018-12-06T06:08:34.289Z,10.10
2018-12-06T06:11:08.856Z,10.87
2018-12-06T06:13:43.121Z,10.63
2018-12-06T06:16:17.448Z,10.60
2018-12-06T06:18:51.653Z,9.83
2018-12-06T06:21:26.093Z,11.20
2018-12-06T06:24:00.513Z,9.70
2018-12-06T06:26:34.739Z,10.23
2018-12-06T06:29:09.088Z,10.63
2018-12-06T06:31:43.499Z,12.00
2018-12-06T06:34:17.833Z,14.13
2018-12-06T06:36:52.113Z,11.90
2018-12-06T06:39:26.613Z,11.70
2018-12-06T06:42:01.132Z,11.60
2018-12-06T06:44:35.487Z,10.80
2018-12-06T06:47:09.726Z,10.43
2018-12-06T06:49:44.037Z,11.33
2018-12-06T06:52:18.465Z,11.40
2018-12-06T06:54:52.975Z,11.63
2018-12-06T06:57:27.321Z,10.87
2018-12-06T07:00:01.712Z,12.03
2018-12-06T07:02:36.313Z,15.35
2018-12-06T07:05:10.623Z,12.23
2018-12-06T07:07:45.064Z,12.77
2018-12-06T07:10:19.825Z,12.27
2018-12-06T07:12:54.180Z,12.23
2018-12-06T07:15:28.505Z,11.50
2018-12-06T07:18:02.882Z,12.43
2018-12-06T07:20:37.269Z,14.50
2018-12-06T07:23:11.677Z,13.13
2018-12-06T07:25:46.461Z,11.87
2018-12-06T07:28:21.033Z,12.83
2018-12-06T07:30:55.340Z,12.20
2018-12-06T07:33:29.576Z,11.57
2018-12-06T07:36:04.104Z,12.07
2018-12-06T07:38:38.536Z,11.83
2018-12-06T07:41:12.687Z,12.77
2018-12-06T07:43:47.060Z,12.07
2018-12-06T07:46:21.623Z,11.67
2018-12-06T07:48:55.909Z,11.67
2018-12-06T07:51:30.361Z,11.60
2018-12-06T07:54:04.650Z,11.53
2018-12-06T07:56:39.105Z,12.43
2018-12-06T07:59:13.392Z,12.37
2018-12-06T08:01:47.838Z,12.50
2018-12-06T08:04:22.173Z,12.40
2018-12-06T08:06:56.472Z,11.50
2018-12-06T08:09:30.776Z,12.47
2018-12-06T08:12:05.185Z,11.60
2018-12-06T08:14:39.500Z,11.77
2018-12-06T08:17:13.860Z,12.63
2018-12-06T08:19:48.149Z,10.70
2018-12-06T08:22:22.391Z,13.90
2018-12-06T08:24:56.653Z,14.77
2018-12-06T08:27:30.847Z,13.67
2018-12-06T08:30:05.764Z,12.73
2018-12-06T08:32:39.930Z,11.40
2018-12-06T08:35:14.113Z,11.70
2018-12-06T08:37:48.480Z,11.60
2018-12-06T08:40:22.902Z,11.87
2018-12-06T08:42:57.089Z,11.97
2018-12-06T08:45:31.481Z,11.53
2018-12-06T08:48:05.848Z,12.27
2018-12-06T08:50:40.189Z,16.20
2018-12-06T08:53:14.447Z,12.90
2018-12-06T08:55:48.820Z,11.43
2018-12-06T08:58:23.185Z,11.90
2018-12-06T09:00:57.584Z,11.63
2018-12-06T09:03:31.874Z,10.73
2018-12-06T09:06:06.189Z,11.73
2018-12-06T09:08:40.601Z,11.03
2018-12-06T09:11:14.952Z,11.73
2018-12-06T09:13:49.224Z,10.70
2018-12-06T09:16:23.864Z,11.17
2018-12-06T09:18:58.082Z,11.07
2018-12-06T09:21:32.428Z,11.73
2018-12-06T09:24:06.818Z,10.77
2018-12-06T09:26:41.042Z,12.50
2018-12-06T09:29:15.317Z,11.57
2018-12-06T09:31:49.598Z,11.33
2018-12-06T09:34:24.261Z,11.03
2018-12-06T09:36:58.526Z,12.23
2018-12-06T09:39:32.977Z,11.03
2018-12-06T09:42:07.217Z,11.93
2018-12-06T09:44:41.429Z,10.97
2018-12-06T09:47:15.802Z,12.63
2018-12-06T09:49:50.312Z,11.10
2018-12-06T09:52:24.525Z,12.70
2018-12-06T09:54:58.972Z,10.57
2018-12-06T09:57:33.461Z,11.87
2018-12-06T10:00:10.073Z,10.87
2018-12-06T10:02:44.509Z,10.87
2018-12-06T10:05:19.624Z,11.50
2018-12-06T10:07:53.875Z,11.93
2018-12-06T10:10:28.310Z,10.73
2018-12-06T10:13:02.583Z,11.20
2018-12-06T10:15:36.849Z,11.57
2018-12-06T10:18:11.185Z,11.50
2018-12-06T10:20:45.792Z,12.80
2018-12-06T10:23:20.141Z,10.30
2018-12-06T10:25:54.629Z,10.77
2018-12-06T10:28:28.900Z,11.30
2018-12-06T10:31:03.365Z,11.20
2018-12-06T10:33:37.585Z,12.00
2018-12-06T10:36:11.960Z,11.60
2018-12-06T10:38:46.144Z,11.87
2018-12-06T10:41:20.378Z,11.33
2018-12-06T10:43:54.668Z,12.00
2018-12-06T10:46:29.078Z,12.90
2018-12-06T10:49:03.462Z,13.23
2018-12-06T10:51:42.196Z,12.60
2018-12-06T10:54:16.563Z,12.80
2018-12-06T10:56:50.899Z,12.87
2018-12-06T10:59:25.288Z,12.43
2018-12-06T11:02:03.707Z,11.90
2018-12-06T11:04:38.161Z,12.53
2018-12-06T11:07:12.440Z,13.10
2018-12-06T11:09:46.838Z,12.63
2018-12-06T11:12:21.118Z,13.10
2018-12-06T11:14:55.357Z,14.10
2018-12-06T11:17:29.665Z,12.17
2018-12-06T11:20:05.187Z,12.33
2018-12-06T11:22:39.361Z,13.77
2018-12-06T11:25:13.830Z,13.27
2018-12-06T11:27:48.180Z,14.07
2018-12-06T11:30:22.473Z,13.67
2018-12-06T11:32:56.781Z,14.37
2018-12-06T11:35:31.137Z,14.53
2018-12-06T11:38:05.428Z,15.53
2018-12-06T11:40:39.642Z,14.97
2018-12-06T11:43:14.068Z,14.90
2018-12-06T11:45:48.480Z,16.13
2018-12-06T11:48:26.875Z,16.30
2018-12-06T11:50:58.950Z,17.17
2018-12-06T11:53:33.175Z,17.10
2018-12-06T11:56:07.544Z,18.17
2018-12-06T11:58:41.843Z,17.47
2018-12-06T12:01:16.241Z,18.00
2018-12-06T12:03:50.424Z,18.03
2018-12-06T12:06:24.634Z,19.30
2018-12-06T12:08:58.821Z,19.07
2018-12-06T12:11:33.172Z,19.33
2018-12-06T12:14:07.586Z,19.93
2018-12-06T12:16:41.813Z,19.57
2018-12-06T12:19:16.180Z,19.30
2018-12-06T12:21:50.572Z,21.20
2018-12-06T12:24:24.781Z,19.70
2018-12-06T12:26:59.144Z,20.43
2018-12-06T12:29:33.789Z,21.83
2018-12-06T12:32:08.169Z,20.00
2018-12-06T12:34:42.563Z,20.87
2018-12-06T12:37:16.773Z,21.53
2018-12-06T12:39:51.157Z,20.10
2018-12-06T12:42:25.460Z,21.43
2018-12-06T12:44:59.660Z,20.53
2018-12-06T12:47:33.861Z,19.87
2018-12-06T12:50:08.897Z,20.90
2018-12-06T12:52:43.192Z,20.13
2018-12-06T12:55:17.525Z,19.47
2018-12-06T12:57:51.786Z,22.70
2018-12-06T13:00:26.243Z,20.43
2018-12-06T13:03:00.480Z,21.33
2018-12-06T13:05:34.817Z,21.70
2018-12-06T13:08:09.117Z,23.07
2018-12-06T13:10:43.308Z,22.93
2018-12-06T13:13:17.724Z,21.77
2018-12-06T13:15:52.136Z,22.87
2018-12-06T13:18:26.573Z,23.00
2018-12-06T13:21:00.956Z,21.70
2018-12-06T13:23:36.598Z,21.00
2018-12-06T13:26:11.312Z,21.00
2018-12-06T13:28:45.629Z,21.57
2018-12-06T13:31:20.176Z,22.03
2018-12-06T13:33:54.529Z,20.40
2018-12-06T13:36:29.190Z,20.83
2018-12-06T13:39:04.737Z,20.13
2018-12-06T13:41:38.928Z,19.43
2018-12-06T13:44:14.511Z,18.67
2018-12-06T13:46:49.190Z,18.87
2018-12-06T13:49:23.491Z,19.57
2018-12-06T13:51:57.905Z,18.07
2018-12-06T13:54:32.141Z,19.83
2018-12-06T13:57:06.318Z,20.03
2018-12-06T13:59:40.673Z,19.67
2018-12-06T14:02:15.089Z,19.63
2018-12-06T14:04:49.292Z,19.73
2018-12-06T14:07:23.637Z,19.90
2018-12-06T14:09:57.938Z,18.23
2018-12-06T14:12:41.320Z,17.93
2018-12-06T14:15:15.916Z,19.87
2018-12-06T14:17:51.566Z,18.93
2018-12-06T14:37:59.325Z,13.67
2018-12-06T14:40:33.660Z,12.60
2018-12-06T14:43:08.237Z,12.73
2018-12-06T14:45:42.905Z,12.07
2018-12-06T14:48:17.531Z,12.47
2018-12-06T14:50:51.841Z,12.33
2018-12-06T14:53:26.300Z,12.40
2018-12-06T14:56:00.605Z,12.03
2018-12-06T14:58:35.032Z,11.40
2018-12-06T15:01:09.481Z,12.20
2018-12-06T15:03:43.852Z,12.70
2018-12-06T15:06:18.414Z,12.07
2018-12-06T15:08:52.613Z,12.83
2018-12-06T15:11:27.093Z,12.90
2018-12-06T15:14:01.478Z,13.17
2018-12-06T15:16:35.957Z,15.43
2018-12-06T15:19:10.587Z,15.53
2018-12-06T15:21:44.996Z,18.90
2018-12-06T15:24:19.444Z,20.50
2018-12-06T15:26:54.267Z,13.73
2018-12-06T15:29:28.731Z,19.73
2018-12-06T15:32:03.140Z,13.23
2018-12-06T15:34:37.429Z,21.90
2018-12-06T15:37:11.691Z,12.90
2018-12-06T15:39:46.093Z,12.70
2018-12-06T15:42:20.396Z,12.97
2018-12-06T15:44:54.650Z,13.53
2018-12-06T15:47:29.209Z,13.83
2018-12-06T15:50:03.820Z,12.80
2018-12-06T15:52:38.101Z,14.53
2018-12-06T15:55:12.547Z,14.00
2018-12-06T15:57:46.941Z,14.60
2018-12-06T16:00:21.573Z,14.60
2018-12-06T16:02:55.793Z,14.83
2018-12-06T16:05:30.106Z,13.80
2018-12-06T16:08:05.257Z,14.40
2018-12-06T16:10:42.704Z,14.67
2018-12-06T16:13:17.096Z,13.83
2018-12-06T16:15:51.398Z,13.93
2018-12-06T16:18:25.703Z,13.70
2018-12-06T16:21:00.010Z,14.40
2018-12-06T16:23:34.235Z,13.10
2018-12-06T16:26:08.491Z,12.93
2018-12-06T16:28:42.713Z,14.33
2018-12-06T16:31:17.069Z,13.63
2018-12-06T16:33:51.222Z,13.80
2018-12-06T16:36:25.573Z,26.50
2018-12-06T16:38:59.852Z,22.47
2018-12-06T16:41:34.386Z,15.37
2018-12-06T16:44:08.637Z,14.87
2018-12-06T16:46:43.088Z,14.13
2018-12-06T16:49:17.374Z,14.90
2018-12-06T16:51:51.869Z,14.27
2018-12-06T16:54:26.108Z,15.97
2018-12-06T16:57:00.410Z,15.00
2018-12-06T16:59:34.733Z,16.67
2018-12-06T17:02:09.165Z,15.70
2018-12-06T17:04:43.460Z,16.03
2018-12-06T17:07:17.897Z,15.10
2018-12-06T17:09:53.224Z,16.57
2018-12-06T17:12:27.616Z,16.37
2018-12-06T17:15:02.693Z,17.17
2018-12-06T17:17:37.304Z,16.83
2018-12-06T17:20:12.611Z,17.03
2018-12-06T17:22:47.016Z,18.13
2018-12-06T17:25:21.409Z,19.63
2018-12-06T17:27:55.779Z,19.90
2018-12-06T17:30:30.577Z,20.53
2018-12-06T17:33:05.017Z,19.87
2018-12-06T17:35:39.478Z,19.10
2018-12-06T17:38:13.844Z,20.00
2018-12-06T17:40:48.284Z,19.77
2018-12-06T17:43:22.597Z,23.67
2018-12-06T17:45:56.932Z,23.30
2018-12-06T17:48:31.358Z,24.13
2018-12-06T17:51:05.733Z,23.10
2018-12-06T17:53:39.969Z,22.63
2018-12-06T17:56:14.376Z,20.67
2018-12-06T17:58:48.765Z,21.03
2018-12-06T18:01:23.237Z,22.77
2018-12-06T18:03:57.512Z,20.27
2018-12-06T18:06:31.691Z,19.13
2018-12-06T18:09:07.486Z,19.67
2018-12-06T18:11:41.740Z,18.47
2018-12-06T18:14:16.158Z,19.47
2018-12-06T18:16:50.491Z,18.63
2018-12-06T18:19:24.744Z,20.33
2018-12-06T18:21:59.275Z,19.93
2018-12-06T18:24:33.560Z,21.97
2018-12-06T18:27:07.952Z,21.60
2018-12-06T18:29:42.364Z,19.03
2018-12-06T18:32:16.637Z,20.07
2018-12-06T18:34:50.953Z,20.37
2018-12-06T18:37:25.415Z,20.13
2018-12-06T18:39:59.998Z,19.87
2018-12-06T18:42:34.409Z,18.50
2018-12-06T18:45:08.878Z,19.03
2018-12-06T18:47:43.164Z,18.57
2018-12-06T18:50:17.756Z,17.30
2018-12-06T18:52:51.950Z,18.97
2018-12-06T18:55:26.273Z,18.47
2018-12-06T18:58:00.601Z,16.83
2018-12-06T19:00:35.020Z,16.87
2018-12-06T19:03:09.368Z,16.23
2018-12-06T19:05:43.788Z,16.33
2018-12-06T19:08:17.966Z,17.90
2018-12-06T19:10:52.228Z,16.90
2018-12-06T19:13:26.613Z,16.67
2018-12-06T19:16:00.913Z,17.17
2018-12-06T19:18:35.333Z,17.33
2018-12-06T19:21:09.604Z,15.87
2018-12-06T19:23:43.944Z,17.20
2018-12-06T19:26:18.137Z,17.43
2018-12-06T19:28:52.491Z,16.70
2018-12-06T19:31:26.774Z,17.63
2018-12-06T19:34:01.110Z,15.73
2018-12-06T19:36:35.473Z,16.13
2018-12-06T19:39:09.974Z,17.23
2018-12-06T19:41:44.196Z,14.47
2018-12-06T19:44:18.497Z,16.40
2018-12-06T19:46:52.912Z,15.77
2018-12-06T19:49:27.295Z,15.67
2018-12-06T19:52:01.668Z,15.53
2018-12-06T19:54:35.877Z,15.90
2018-12-06T19:57:10.132Z,16.20
2018-12-06T19:59:44.444Z,16.00
2018-12-06T20:02:18.722Z,14.90
2018-12-06T20:04:53.095Z,15.87
2018-12-06T20:07:27.378Z,15.37
2018-12-06T20:10:01.708Z,15.97
2018-12-06T20:12:36.048Z,15.50
2018-12-06T20:15:10.406Z,17.13
2018-12-06T20:17:44.868Z,15.60
2018-12-06T20:20:23.650Z,17.07
2018-12-06T20:22:55.576Z,17.10
2018-12-06T20:25:29.933Z,16.53
2018-12-06T20:28:04.401Z,17.00
2018-12-06T20:30:38.874Z,16.50
2018-12-06T20:33:13.161Z,15.87
2018-12-06T20:35:47.409Z,16.83
2018-12-06T20:38:21.769Z,17.20
2018-12-06T20:40:56.137Z,16.97
2018-12-06T20:43:30.351Z,15.37
2018-12-06T20:46:04.885Z,16.00
2018-12-06T20:48:39.128Z,16.63
2018-12-06T20:51:13.549Z,15.93
2018-12-06T20:53:47.876Z,18.43
2018-12-06T20:56:22.371Z,15.03
2018-12-06T20:58:56.740Z,17.00
2018-12-06T21:01:31.112Z,16.50
2018-12-06T21:04:05.433Z,17.23
2018-12-06T21:06:39.913Z,17.13
2018-12-06T21:09:14.425Z,22.00
2018-12-06T21:11:48.890Z,18.80
2018-12-06T21:14:23.182Z,17.70
2018-12-06T21:16:57.754Z,15.07
2018-12-06T21:19:31.928Z,16.30
2018-12-06T21:22:06.207Z,15.13
2018-12-06T21:24:40.460Z,16.20
2018-12-06T21:27:21.317Z,14.03
2018-12-06T21:29:55.720Z,16.63
2018-12-06T21:32:30.040Z,16.67
2018-12-06T21:35:04.552Z,16.63
2018-12-06T21:37:38.874Z,16.00
2018-12-06T21:40:13.312Z,16.80
2018-12-06T21:42:47.694Z,16.60
2018-12-06T21:45:22.202Z,16.90
2018-12-06T21:47:56.553Z,15.93
2018-12-06T21:50:30.853Z,16.10
2018-12-06T21:53:05.188Z,17.27
2018-12-06T21:55:39.532Z,18.57
2018-12-06T21:58:13.746Z,17.30
2018-12-06T22:00:48.141Z,16.63
2018-12-06T22:03:22.578Z,15.30
2018-12-06T22:05:56.929Z,17.77
2018-12-06T22:08:31.089Z,18.60
2018-12-06T22:11:05.677Z,17.90
2018-12-06T22:13:39.970Z,16.43
2018-12-06T22:16:14.222Z,17.57
2018-12-06T22:18:48.650Z,17.43
2018-12-06T22:21:23.072Z,17.33
2018-12-06T22:23:57.359Z,17.60
2018-12-06T22:26:31.617Z,18.23
2018-12-06T22:29:06.072Z,18.27
2018-12-06T22:31:40.512Z,19.17
2018-12-06T22:34:14.784Z,18.83
2018-12-06T22:36:49.264Z,18.77
2018-12-06T22:39:23.713Z,18.23
2018-12-06T22:41:57.988Z,19.70
2018-12-06T22:44:32.411Z,17.07
2018-12-06T22:47:06.866Z,17.83
2018-12-06T22:49:41.080Z,18.90
2018-12-06T22:52:15.520Z,19.37
2018-12-06T22:54:49.822Z,19.40
2018-12-06T22:57:24.297Z,18.63
2018-12-06T22:59:58.669Z,17.83
2018-12-06T23:02:32.962Z,18.47
2018-12-06T23:05:07.333Z,17.63
2018-12-06T23:07:41.589Z,18.33
2018-12-06T23:10:15.988Z,18.13
2018-12-06T23:12:50.338Z,17.07
2018-12-06T23:15:24.744Z,17.53
2018-12-06T23:17:59.080Z,17.97
2018-12-06T23:20:33.582Z,17.67
2018-12-06T23:23:08.013Z,17.90
2018-12-06T23:25:42.470Z,17.70
2018-12-06T23:28:16.729Z,16.30
2018-12-06T23:30:51.078Z,16.87
2018-12-06T23:33:31.846Z,18.40
2018-12-06T23:36:01.857Z,18.60
2018-12-06T23:38:36.089Z,17.77
2018-12-06T23:41:10.269Z,16.63
2018-12-06T23:43:44.620Z,17.57
2018-12-06T23:46:18.973Z,15.57
2018-12-06T23:48:53.257Z,17.07
2018-12-06T23:51:38.345Z,15.37
2018-12-06T23:54:12.543Z,15.40
2018-12-06T23:56:46.936Z,15.73
2018-12-06T23:59:21.269Z,14.30
